createdAt,value
2023-03-20T00:00:17.297Z,95522.16
2023-03-20T00:03:19.293Z,95523.78
2023-03-20T00:06:23.318Z,95523.69
2023-03-20T00:09:25.722Z,95526.31
2023-03-20T00:12:29.568Z,95529.53
2023-03-20T00:15:35.238Z,95523.19
2023-03-20T00:18:37.771Z,95523.69
2023-03-20T00:21:40.054Z,95523.63
2023-03-20T00:24:42.998Z,95526.84
2023-03-20T00:27:48.042Z,95519.69
2023-03-20T00:30:50.304Z,95527.09
2023-03-20T00:33:54.965Z,95518.63
2023-03-20T00:36:57.405Z,95521.78
2023-03-20T00:39:59.642Z,95519.94
2023-03-20T00:43:04.797Z,95522.03
2023-03-20T00:46:12.423Z,95525.94
2023-03-20T00:49:14.547Z,95520.19
2023-03-20T00:52:17.843Z,95526.75
2023-03-20T00:55:21.930Z,95537.97
2023-03-20T00:58:25.853Z,95536.84
2023-03-20T01:01:29.198Z,95531.88
2023-03-20T01:04:35.827Z,95537.16
2023-03-20T01:07:39.847Z,95539.25
2023-03-20T01:10:43.215Z,95530.72
2023-03-20T01:13:47.315Z,95536.13
2023-03-20T01:16:49.576Z,95535.47
2023-03-20T01:19:51.768Z,95541.31
2023-03-20T01:22:53.654Z,95539.44
2023-03-20T01:25:55.516Z,95542.91
2023-03-20T01:28:58.816Z,95541.03
2023-03-20T01:32:01.144Z,95544.91
2023-03-20T01:35:03.471Z,95535.34
2023-03-20T01:38:13.619Z,95542.34
2023-03-20T01:41:17.399Z,95540.81
2023-03-20T01:44:23.973Z,95545.84
2023-03-20T01:47:25.809Z,95555.09
2023-03-20T01:50:31.661Z,95548.19
2023-03-20T01:53:33.923Z,95545.56
2023-03-20T01:56:41.832Z,95552.13
2023-03-20T01:59:48.440Z,95553.28
2023-03-20T02:02:51.809Z,95547.84
2023-03-20T02:05:55.272Z,95552.09
2023-03-20T02:08:57.049Z,95552.13
2023-03-20T02:12:00.309Z,95551.72
2023-03-20T02:15:03.872Z,95554.47
2023-03-20T02:18:05.791Z,95550.53
2023-03-20T02:21:57.343Z,95554.84
2023-03-20T02:25:13.899Z,95557.53
2023-03-20T02:28:47.820Z,95562.59
2023-03-20T02:32:41.342Z,95563.31
2023-03-20T02:36:31.410Z,95569.44
2023-03-20T02:39:52.018Z,95568.63
2023-03-20T02:43:03.396Z,95567.91
2023-03-20T02:46:14.995Z,95563.69
2023-03-20T02:49:33.946Z,95561.78
2023-03-20T02:52:49.653Z,95572.13
2023-03-20T02:56:02.590Z,95570.09
2023-03-20T02:59:12.698Z,95565.47
2023-03-20T03:02:27.192Z,95563.88
2023-03-20T03:05:36.817Z,95572.78
2023-03-20T03:08:45.168Z,95575.03
2023-03-20T03:11:51.877Z,95578.91
2023-03-20T03:14:59.672Z,95575.59
2023-03-20T03:18:05.762Z,95569.94
2023-03-20T03:21:09.746Z,95575.31
2023-03-20T03:24:39.877Z,95578.81
2023-03-20T03:27:49.160Z,95581.84
2023-03-20T03:30:52.607Z,95574.50
2023-03-20T03:33:57.814Z,95581.84
2023-03-20T03:37:06.544Z,95575.69
2023-03-20T03:40:17.056Z,95574.19
2023-03-20T03:43:27.654Z,95569.50
2023-03-20T03:46:44.566Z,95576.06
2023-03-20T03:49:52.051Z,95568.34
2023-03-20T03:52:57.197Z,95572.94
2023-03-20T03:56:03.676Z,95571.44
2023-03-20T03:59:11.811Z,95569.47
2023-03-20T04:02:17.086Z,95574.81
2023-03-20T04:05:20.503Z,95577.50
2023-03-20T04:08:22.306Z,95579.91
2023-03-20T04:11:28.166Z,95575.59
2023-03-20T04:14:31.927Z,95576.38
2023-03-20T04:17:35.326Z,95577.91
2023-03-20T04:20:37.158Z,95578.28
2023-03-20T04:23:39.147Z,95580.16
2023-03-20T04:26:42.279Z,95582.13
2023-03-20T04:29:45.795Z,95588.69
2023-03-20T04:32:48.132Z,95586.00
2023-03-20T04:35:50.882Z,95590.28
2023-03-20T04:38:54.615Z,95591.03
2023-03-20T04:41:58.664Z,95592.09
2023-03-20T04:45:02.902Z,95602.91
2023-03-20T04:48:05.128Z,95602.16
2023-03-20T04:51:07.960Z,95613.34
2023-03-20T04:54:10.272Z,95614.47
2023-03-20T04:57:12.410Z,95606.81
2023-03-20T05:00:17.024Z,95619.19
2023-03-20T05:03:19.874Z,95630.00
2023-03-20T05:06:22.956Z,95624.22
2023-03-20T05:09:24.856Z,95625.31
2023-03-20T05:12:27.142Z,95629.63
2023-03-20T05:15:30.814Z,95631.13
2023-03-20T05:18:32.684Z,95629.66
2023-03-20T05:21:34.644Z,95645.81
2023-03-20T05:24:36.921Z,95648.09
2023-03-20T05:27:39.204Z,95648.94
2023-03-20T05:30:42.478Z,95640.72
2023-03-20T05:33:44.306Z,95644.88
2023-03-20T05:36:46.157Z,95653.81
2023-03-20T05:39:48.056Z,95656.88
2023-03-20T05:42:49.826Z,95658.41
2023-03-20T05:45:54.207Z,95657.78
2023-03-20T05:48:58.029Z,95651.25
2023-03-20T05:51:59.929Z,95655.97
2023-03-20T05:55:01.866Z,95660.94
2023-03-20T05:58:03.672Z,95654.50
2023-03-20T06:01:07.347Z,95664.09
2023-03-20T06:04:10.191Z,95668.03
2023-03-20T06:07:12.162Z,95665.22
2023-03-20T06:10:13.930Z,95665.22
2023-03-20T06:13:15.994Z,95676.41
2023-03-20T06:16:19.690Z,95675.72
2023-03-20T06:19:22.172Z,95671.50
2023-03-20T06:22:24.110Z,95683.09
2023-03-20T06:25:26.205Z,95680.91
2023-03-20T06:28:28.193Z,95686.25
2023-03-20T06:31:31.914Z,95687.75
2023-03-20T06:34:36.439Z,95687.63
2023-03-20T06:37:38.550Z,95696.03
2023-03-20T06:40:40.719Z,95694.06
2023-03-20T06:43:42.620Z,95697.53
2023-03-20T06:46:46.005Z,95700.66
2023-03-20T06:49:47.916Z,95701.38
2023-03-20T06:52:49.817Z,95713.75
2023-03-20T06:55:54.385Z,95704.94
2023-03-20T06:58:56.602Z,95711.53
2023-03-20T07:01:59.968Z,95711.47
2023-03-20T07:05:02.280Z,95708.31
2023-03-20T07:08:04.519Z,95705.59
2023-03-20T07:11:07.408Z,95709.81
2023-03-20T07:14:09.641Z,95718.31
2023-03-20T07:17:13.166Z,95715.94
2023-03-20T07:20:15.659Z,95719.13
2023-03-20T07:23:17.589Z,95716.38
2023-03-20T07:26:19.657Z,95717.22
2023-03-20T07:29:21.471Z,95722.13
2023-03-20T07:32:24.873Z,95730.03
2023-03-20T07:35:27.084Z,95733.25
2023-03-20T07:41:51.853Z,95740.16
2023-03-20T07:44:54.143Z,95743.88
2023-03-20T07:48:00.706Z,95748.59
2023-03-20T07:51:02.856Z,95748.50
2023-03-20T07:54:06.425Z,95749.03
2023-03-20T07:57:08.372Z,95749.69
2023-03-20T08:00:13.165Z,95751.63
2023-03-20T08:03:16.810Z,95755.13
2023-03-20T08:06:19.062Z,95755.13
2023-03-20T08:09:21.144Z,95763.84
2023-03-20T08:12:22.976Z,95767.34
2023-03-20T08:15:24.975Z,95768.94
2023-03-20T08:18:29.647Z,95764.59
2023-03-20T08:21:33.246Z,95767.03
2023-03-20T08:24:35.192Z,95776.94
2023-03-20T08:27:37.787Z,95772.19
2023-03-20T08:30:40.824Z,95770.63
2023-03-20T08:33:44.282Z,95779.91
2023-03-20T08:36:47.163Z,95775.16
2023-03-20T08:39:49.434Z,95780.97
2023-03-20T08:42:51.306Z,95770.22
2023-03-20T08:45:53.460Z,95781.50
2023-03-20T08:48:56.865Z,95785.66
2023-03-20T08:51:59.978Z,95781.88
2023-03-20T08:55:02.256Z,95779.19
2023-03-20T08:58:04.586Z,95781.28
2023-03-20T09:01:10.096Z,95776.50
2023-03-20T09:04:14.862Z,95783.22
2023-03-20T09:07:19.193Z,95781.34
2023-03-20T09:10:21.517Z,95789.88
2023-03-20T09:13:27.456Z,95795.56
2023-03-20T09:16:29.920Z,95791.03
2023-03-20T09:19:34.853Z,95791.88
2023-03-20T09:22:38.349Z,95788.38
2023-03-20T09:25:40.875Z,95806.34
2023-03-20T09:28:45.309Z,95800.72
2023-03-20T09:31:47.368Z,95794.44
2023-03-20T09:34:50.670Z,95792.16
2023-03-20T09:41:20.564Z,95796.31
2023-03-20T09:44:37.437Z,95791.41
2023-03-20T09:47:47.434Z,95784.44
2023-03-20T09:50:58.198Z,95778.50
2023-03-20T09:54:04.949Z,95782.84
2023-03-20T09:57:13.775Z,95782.38
2023-03-20T10:00:19.202Z,95785.19
2023-03-20T10:03:25.020Z,95778.22
2023-03-20T10:06:29.535Z,95779.28
2023-03-20T10:09:33.399Z,95778.19
2023-03-20T10:12:51.059Z,95778.28
2023-03-20T10:15:57.730Z,95775.16
2023-03-20T10:19:08.892Z,95766.31
2023-03-20T10:22:20.923Z,95772.03
2023-03-20T10:25:28.829Z,95767.41
2023-03-20T10:28:37.717Z,95767.88
2023-03-20T10:31:46.459Z,95768.03
2023-03-20T10:35:01.325Z,95768.97
2023-03-20T10:38:21.450Z,95762.91
2023-03-20T10:41:29.950Z,95768.06
2023-03-20T10:44:36.854Z,95765.97
2023-03-20T10:47:42.897Z,95763.75
2023-03-20T10:50:48.936Z,95756.34
2023-03-20T10:53:54.877Z,95764.16
2023-03-20T10:56:59.643Z,95765.97
2023-03-20T11:00:05.330Z,95762.19
2023-03-20T11:03:08.276Z,95765.28
2023-03-20T11:06:18.427Z,95765.13
2023-03-20T11:09:24.250Z,95758.63
2023-03-20T11:12:33.286Z,95758.09
2023-03-20T11:15:38.143Z,95748.94
2023-03-20T11:18:42.170Z,95755.25
2023-03-20T11:21:47.428Z,95753.53
2023-03-20T11:24:55.125Z,95754.41
2023-03-20T11:28:19.851Z,95744.34
2023-03-20T11:31:30.841Z,95747.88
2023-03-20T11:34:37.470Z,95751.09
2023-03-20T11:37:46.949Z,95751.09
2023-03-20T11:40:52.194Z,95750.06
2023-03-20T11:43:55.044Z,95747.63
2023-03-20T11:47:01.703Z,95743.13
2023-03-20T11:50:07.874Z,95740.84
2023-03-20T11:53:43.075Z,95743.97
2023-03-20T11:56:55.050Z,95738.53
2023-03-20T11:59:57.934Z,95737.03
2023-03-20T12:03:00.338Z,95735.47
2023-03-20T12:06:05.207Z,95737.91
2023-03-20T12:09:21.141Z,95732.81
2023-03-20T12:12:37.369Z,95730.13
2023-03-20T12:15:44.767Z,95729.78
2023-03-20T12:18:49.517Z,95731.69
2023-03-20T12:21:59.008Z,95731.41
2023-03-20T12:25:04.141Z,95731.72
2023-03-20T12:28:17.583Z,95734.41
2023-03-20T12:31:26.817Z,95729.34
2023-03-20T12:34:35.314Z,95725.88
2023-03-20T12:37:37.206Z,95729.34
2023-03-20T12:40:44.040Z,95722.09
2023-03-20T12:44:18.512Z,95729.06
2023-03-20T12:47:47.301Z,95729.22
2023-03-20T12:50:54.722Z,95722.78
2023-03-20T12:54:10.576Z,95725.91
2023-03-20T12:57:24.613Z,95724.47
2023-03-20T13:00:33.764Z,95722.72
2023-03-20T13:03:52.600Z,95728.19
2023-03-20T13:06:56.591Z,95726.59
2023-03-20T13:10:09.372Z,95725.47
2023-03-20T13:13:21.682Z,95714.31
2023-03-20T13:16:36.231Z,95720.88
2023-03-20T13:19:47.346Z,95720.47
2023-03-20T13:23:01.263Z,95714.31
2023-03-20T13:26:14.925Z,95718.19
2023-03-20T13:29:27.550Z,95710.50
2023-03-20T13:32:41.357Z,95710.16
2023-03-20T13:35:54.563Z,95709.97
2023-03-20T13:39:03.454Z,95710.78
2023-03-20T13:42:12.838Z,95699.22
2023-03-20T13:45:22.302Z,95704.81
2023-03-20T13:48:33.493Z,95703.28
2023-03-20T13:51:42.189Z,95706.06
2023-03-20T13:55:08.690Z,95700.66
2023-03-20T13:58:25.904Z,95703.44
2023-03-20T14:01:39.203Z,95695.00
2023-03-20T14:04:41.880Z,95694.63
2023-03-20T14:07:49.065Z,95692.69
2023-03-20T14:11:05.971Z,95689.28
2023-03-20T14:14:14.919Z,95690.78
2023-03-20T14:17:21.761Z,95692.69
2023-03-20T14:20:32.152Z,95698.53
2023-03-20T14:23:38.077Z,95698.88
2023-03-20T14:26:41.751Z,95690.00
2023-03-20T14:29:44.080Z,95697.31
2023-03-20T14:33:00.367Z,95687.25
2023-03-20T14:36:18.172Z,95688.81
2023-03-20T14:39:34.939Z,95687.25
2023-03-20T14:42:43.130Z,95683.84
2023-03-20T14:45:52.256Z,95684.97
2023-03-20T14:48:56.259Z,95686.53
2023-03-20T14:52:10.562Z,95683.78
2023-03-20T14:55:34.030Z,95681.84
2023-03-20T14:58:52.324Z,95677.97
2023-03-20T15:01:58.462Z,95671.81
2023-03-20T15:05:00.635Z,95676.81
2023-03-20T15:08:07.333Z,95673.34
2023-03-20T15:11:13.970Z,95676.47
2023-03-20T15:14:22.771Z,95679.97
2023-03-20T15:17:27.499Z,95677.69
2023-03-20T15:20:29.391Z,95680.81
2023-03-20T15:23:35.418Z,95677.31
2023-03-20T15:26:39.786Z,95669.19
2023-03-20T15:29:46.906Z,95672.31
2023-03-20T15:32:52.911Z,95666.53
2023-03-20T15:35:56.036Z,95668.50
2023-03-20T15:39:11.510Z,95663.06
2023-03-20T15:42:17.604Z,95666.19
2023-03-20T15:45:25.351Z,95667.06
2023-03-20T15:48:27.771Z,95668.22
2023-03-20T15:51:30.701Z,95661.66
2023-03-20T15:54:34.045Z,95669.75
2023-03-20T15:57:40.715Z,95670.09
2023-03-20T16:00:46.379Z,95658.28
2023-03-20T16:03:49.072Z,95671.06
2023-03-20T16:06:55.613Z,95659.16
2023-03-20T16:09:58.272Z,95647.94
2023-03-20T16:13:03.157Z,95652.59
2023-03-20T16:16:08.661Z,95650.25
2023-03-20T16:19:12.933Z,95651.44
2023-03-20T16:22:25.812Z,95648.34
2023-03-20T16:25:27.848Z,95648.75
2023-03-20T16:28:36.578Z,95645.66
2023-03-20T16:31:45.711Z,95644.13
2023-03-20T16:34:51.535Z,95638.72
2023-03-20T16:41:28.330Z,95644.13
2023-03-20T16:44:35.272Z,95647.59
2023-03-20T16:47:39.922Z,95652.25
2023-03-20T16:50:43.796Z,95651.81
2023-03-20T16:53:47.899Z,95646.41
2023-03-20T16:56:54.037Z,95648.69
2023-03-20T17:03:30.491Z,95650.19
2023-03-20T17:06:38.036Z,95659.81
2023-03-20T17:09:54.846Z,95654.81
2023-03-20T17:12:57.839Z,95663.28
2023-03-20T17:16:01.871Z,95656.72
2023-03-20T17:19:09.593Z,95662.84
2023-03-20T17:22:16.130Z,95660.13
2023-03-20T17:28:44.054Z,95652.03
2023-03-20T17:31:47.742Z,95648.50
2023-03-20T17:34:50.768Z,95659.69
2023-03-20T17:37:53.505Z,95657.38
2023-03-20T17:40:57.199Z,95653.84
2023-03-20T17:43:59.532Z,95653.44
2023-03-20T17:47:03.637Z,95655.00
2023-03-20T17:50:09.421Z,95654.59
2023-03-20T17:53:18.716Z,95651.53
2023-03-20T17:56:21.358Z,95646.88
2023-03-20T17:59:25.619Z,95657.25
2023-03-20T18:02:31.800Z,95664.56
2023-03-20T18:05:36.636Z,95660.31
2023-03-20T18:08:40.413Z,95673.03
2023-03-20T18:11:43.203Z,95666.06
2023-03-20T18:14:46.682Z,95673.00
2023-03-20T18:17:51.371Z,95673.75
2023-03-20T18:20:56.748Z,95673.72
2023-03-20T18:23:59.807Z,95669.88
2023-03-20T18:27:04.645Z,95662.91
2023-03-20T18:30:17.988Z,95672.56
2023-03-20T18:33:22.668Z,95672.91
2023-03-20T18:36:25.462Z,95676.84
2023-03-20T18:39:28.362Z,95673.72
2023-03-20T18:42:31.446Z,95675.59
2023-03-20T18:45:36.118Z,95677.53
2023-03-20T18:48:41.172Z,95684.09
2023-03-20T18:51:44.452Z,95680.56
2023-03-20T18:54:48.981Z,95676.63
2023-03-20T18:57:52.189Z,95681.56
2023-03-20T19:00:56.609Z,95678.41
2023-03-20T19:04:01.651Z,95687.66
2023-03-20T19:07:05.075Z,95680.66
2023-03-20T19:10:26.262Z,95684.47
2023-03-20T19:13:30.352Z,95675.53
2023-03-20T19:16:37.075Z,95679.34
2023-03-20T19:19:44.164Z,95680.84
2023-03-20T19:22:47.053Z,95685.78
2023-03-20T19:25:51.789Z,95687.63
2023-03-20T19:28:54.475Z,95686.03
2023-03-20T19:31:58.149Z,95691.38
2023-03-20T19:38:27.441Z,95680.50
2023-03-20T19:41:32.149Z,95675.03
2023-03-20T19:44:36.028Z,95678.34
2023-03-20T19:47:41.462Z,95688.28
2023-03-20T19:50:49.561Z,95686.16
2023-03-20T19:53:54.124Z,95683.63
2023-03-20T19:57:00.983Z,95688.06
2023-03-20T20:03:29.795Z,95682.13
2023-03-20T20:06:39.794Z,95679.13
2023-03-20T20:09:43.673Z,95678.03
2023-03-20T20:12:47.040Z,95680.00
2023-03-20T20:15:54.133Z,95682.66
2023-03-20T20:18:57.416Z,95678.41
2023-03-20T20:22:25.683Z,95681.13
2023-03-20T20:25:28.593Z,95681.38
2023-03-20T20:28:42.139Z,95678.88
2023-03-20T20:31:45.783Z,95683.81
2023-03-20T20:35:35.685Z,95688.50
2023-03-20T20:41:44.166Z,95684.25
2023-03-20T20:44:46.700Z,95676.28
2023-03-20T20:47:50.360Z,95684.91
2023-03-20T20:50:53.582Z,95674.41
2023-03-20T20:53:57.732Z,95674.91
2023-03-20T20:57:02.034Z,95683.75
2023-03-20T21:00:09.026Z,95679.44
2023-03-20T21:03:14.387Z,95676.41
2023-03-20T21:06:17.811Z,95675.19
2023-03-20T21:09:22.259Z,95672.22
2023-03-20T21:12:36.373Z,95681.38
2023-03-20T21:15:42.831Z,95676.34
2023-03-20T21:18:45.566Z,95678.69
2023-03-20T21:21:47.400Z,95675.13
2023-03-20T21:24:53.809Z,95670.19
2023-03-20T21:28:00.772Z,95677.88
2023-03-20T21:31:23.476Z,95678.63
2023-03-20T21:34:27.281Z,95674.00
2023-03-20T21:40:55.192Z,95682.97
2023-03-20T21:44:00.770Z,95679.69
2023-03-20T21:48:04.275Z,95678.03
2023-03-20T21:54:48.524Z,95678.19
2023-03-20T21:58:15.143Z,95684.69
2023-03-20T22:01:23.198Z,95670.34
2023-03-20T22:07:56.288Z,95681.31
2023-03-20T22:15:12.044Z,95683.94
2023-03-20T22:18:28.808Z,95680.19
2023-03-20T22:28:28.495Z,95687.50
2023-03-20T22:45:01.769Z,95664.91
2023-03-20T22:48:06.984Z,95666.25
2023-03-20T22:51:09.232Z,95665.94
2023-03-20T22:54:11.092Z,95670.59
2023-03-20T22:57:15.877Z,95661.75
2023-03-20T23:00:22.344Z,95669.00
2023-03-20T23:03:40.330Z,95666.91
2023-03-20T23:06:45.370Z,95660.56
2023-03-20T23:09:47.592Z,95670.25
2023-03-20T23:12:49.664Z,95661.41
2023-03-20T23:15:51.924Z,95662.97
2023-03-20T23:18:55.068Z,95655.13
2023-03-20T23:21:58.232Z,95652.38
2023-03-20T23:25:11.580Z,95655.72
2023-03-20T23:28:17.003Z,95659.59
2023-03-20T23:31:24.409Z,95662.72
2023-03-20T23:34:29.982Z,95660.03
2023-03-20T23:37:31.774Z,95662.81
2023-03-20T23:40:34.002Z,95656.78
2023-03-20T23:43:35.869Z,95655.78
2023-03-20T23:46:39.530Z,95651.53
2023-03-20T23:49:43.118Z,95651.53
2023-03-20T23:52:49.962Z,95651.53
2023-03-20T23:55:59.593Z,95654.47
2023-03-20T23:59:11.546Z,95650.59
